Hamilton, TX

10:26 PM CDT on September 22, 2017 (GMT -0500)
Hamilton Municipal

Weather History for KMNZ - November, 2012

Change the Weather History Date:

Monday, November 5, 2012

  Actual Average (KACT) Record (KACT)
Temperature  
Mean Temperature 66 °F -  
Max Temperature 79 °F 68 °F 88 °F (1963)
Min Temperature 52 °F 49 °F 28 °F (1992)
Growing Degree Days 16 (Base 50)    
Moisture  
Dew Point 43 °F    
Average Humidity 49    
Maximum Humidity 77    
Minimum Humidity 21    
Precipitation  
Precipitation 0.00 in - - ()
Sea Level Pressure  
Sea Level Pressure 30.08 in    
Wind  
Wind Speed 6 mph (NNW)    
Max Wind Speed 16 mph    
Max Gust Speed 23 mph    
Visibility 10 miles    
Events      
Averages and records for this station are not official NWS values.
T = Trace of Precipitation, MM = Missing Value Source: NWS Daily Summary

Daily Weather History Graph

Daily Weather History Graph

Search for Another Location

Airport or City:

Trip Planner

Search our weather history database for the weather conditions in past years. The results will help you decide how hot, cold, wet, or windy it might be!

Date:

Astronomy

Nov. 05, 2012 Rise Set
Actual Time 6:52 AM CST 5:39 PM CST
Civil Twilight 6:27 AM CST 6:04 PM CST
Nautical Twilight 5:58 AM CST 6:33 PM CST
Astronomical Twilight 5:29 AM CST 7:02 PM CST
Moon 11:17 PM CST (11/5) 12:12 PM CST (11/5)
Length of Visible Light 11h 37m
Length of Day
10h 46m
Waning Gibbous, 62% of the Moon is Illuminated
Nov 5
Waning Gibbous
Nov 6
Last Quarter
Nov 13
New
Nov 20
First Quarter
Nov 28
Full

Hourly Weather History & Observations

Time (CST) Temp. Dew Point Humidity Pressure Visibility Wind Dir Wind Speed Gust Speed Precip Events Conditions
12:15 AM 57.9 °F 45.5 °F 63% 30.10 in 10.0 mi SSW 3.5 mph - N/A   Clear
12:35 AM 59.5 °F 45.5 °F 60% 30.10 in 10.0 mi South 3.5 mph - N/A   Clear
12:55 AM 60.6 °F 45.7 °F 58% 30.09 in 10.0 mi SSE 3.5 mph - N/A   Clear
1:15 AM 59.7 °F 45.5 °F 59% 30.09 in 10.0 mi South 3.5 mph - N/A   Clear
1:35 AM 59.4 °F 45.3 °F 60% 30.09 in 10.0 mi Calm Calm - N/A   Clear
1:55 AM 57.4 °F 45.9 °F 65% 30.08 in 10.0 mi SSE 3.5 mph - N/A   Clear
2:15 AM 57.7 °F 46.9 °F 67% 30.09 in 10.0 mi South 3.5 mph - N/A   Clear
2:35 AM 58.3 °F 47.5 °F 67% 30.09 in 10.0 mi Calm Calm - N/A   Clear
2:55 AM 56.7 °F 46.6 °F 69% 30.08 in 10.0 mi Calm Calm - N/A   Clear
3:15 AM 54.3 °F 45.9 °F 73% 30.08 in 10.0 mi North 3.5 mph - N/A   Clear
3:35 AM 54.3 °F 45.5 °F 72% 30.07 in 10.0 mi Calm Calm - N/A   Clear
3:55 AM 55.2 °F 45.5 °F 70% 30.07 in 10.0 mi Calm Calm - N/A   Clear
4:15 AM 55.4 °F 45.9 °F 70% 30.07 in 10.0 mi Calm Calm - N/A   Clear
4:35 AM 54.3 °F 45.3 °F 72% 30.06 in 10.0 mi Calm Calm - N/A   Clear
4:55 AM 54.1 °F 45.0 °F 71% 30.06 in 10.0 mi Calm Calm - N/A   Clear
5:15 AM 54.5 °F 45.3 °F 71% 30.06 in 10.0 mi Calm Calm - N/A   Clear
5:35 AM 53.4 °F 45.1 °F 74% 30.06 in 10.0 mi WSW 3.5 mph - N/A   Clear
5:55 AM 52.9 °F 45.1 °F 75% 30.07 in 10.0 mi WSW 3.5 mph - N/A   Clear
6:15 AM 52.7 °F 45.5 °F 76% 30.07 in 10.0 mi SW 3.5 mph - N/A   Scattered Clouds
6:35 AM 52.5 °F 45.5 °F 77% 30.07 in 10.0 mi SW 3.5 mph - N/A   Scattered Clouds
6:55 AM 52.3 °F 45.3 °F 77% 30.07 in 10.0 mi WSW 5.8 mph - N/A   Clear
7:15 AM 53.1 °F 45.7 °F 76% 30.07 in 10.0 mi WSW 3.5 mph - N/A   Clear
7:35 AM 55.6 °F 47.7 °F 75% 30.08 in 10.0 mi WSW 6.9 mph - N/A   Scattered Clouds
7:55 AM 56.3 °F 48.9 °F 76% 30.08 in 10.0 mi WSW 3.5 mph - N/A   Scattered Clouds
8:15 AM 59.9 °F 51.3 °F 73% 30.08 in 10.0 mi WSW 5.8 mph - N/A   Clear
8:35 AM 64.0 °F 52.7 °F 67% 30.08 in 10.0 mi WSW 6.9 mph - N/A   Clear
8:55 AM 66.6 °F 53.1 °F 62% 30.09 in 10.0 mi West 6.9 mph - N/A   Clear
9:15 AM 69.6 °F 53.4 °F 56% 30.09 in 10.0 mi WNW 9.2 mph - N/A   Clear
9:35 AM 72.1 °F 52.9 °F 51% 30.09 in 10.0 mi NW 10.4 mph 17.3 mph N/A   Clear
9:55 AM 73.9 °F 52.5 °F 47% 30.10 in 10.0 mi NW 12.7 mph - N/A   Clear
10:15 AM 75.2 °F 52.3 °F 45% 30.09 in 10.0 mi NW 12.7 mph - N/A   Clear
10:35 AM 76.1 °F 52.2 °F 43% 30.09 in 10.0 mi NNW 12.7 mph - N/A   Clear
10:55 AM 76.5 °F 52.0 °F 42% 30.09 in 10.0 mi NNW 10.4 mph - N/A   Clear
11:15 AM 76.5 °F 51.4 °F 42% 30.09 in 10.0 mi NW 11.5 mph - N/A   Clear
11:35 AM 76.6 °F 51.1 °F 41% 30.09 in 10.0 mi NNW 12.7 mph 16.1 mph N/A   Clear
11:55 AM 76.8 °F 50.9 °F 40% 30.08 in 10.0 mi North 10.4 mph 18.4 mph N/A   Clear
12:15 PM 78.1 °F 50.9 °F 39% 30.07 in 10.0 mi North 11.5 mph 17.3 mph N/A   Clear
12:35 PM 78.8 °F 50.9 °F 38% 30.06 in 10.0 mi North 8.1 mph 16.1 mph N/A   Clear
12:55 PM 79.0 °F 50.9 °F 37% 30.05 in 10.0 mi North 9.2 mph 16.1 mph N/A   Clear
1:15 PM 79.0 °F 49.6 °F 36% 30.05 in 10.0 mi NNE 13.8 mph 18.4 mph N/A   Clear
1:35 PM 78.4 °F 48.7 °F 35% 30.04 in 10.0 mi North 12.7 mph 16.1 mph N/A   Clear
1:55 PM 78.3 °F 46.8 °F 33% 30.04 in 10.0 mi North 10.4 mph 23.0 mph N/A   Clear
2:15 PM 78.8 °F 45.7 °F 31% 30.04 in 10.0 mi NNE 11.5 mph - N/A   Clear
2:35 PM 78.8 °F 44.4 °F 30% 30.04 in 10.0 mi North 15.0 mph 18.4 mph N/A   Clear
2:55 PM 79.0 °F 42.4 °F 27% 30.03 in 10.0 mi NNE 10.4 mph 18.4 mph N/A   Clear
3:15 PM 79.2 °F 40.8 °F 25% 30.03 in 10.0 mi NNE 16.1 mph 21.9 mph N/A   Clear
3:35 PM 78.8 °F 40.1 °F 25% 30.04 in 10.0 mi NNE 15.0 mph 21.9 mph N/A   Clear
3:55 PM 78.4 °F 38.3 °F 24% 30.04 in 10.0 mi North 15.0 mph - N/A   Clear
4:15 PM 78.1 °F 37.2 °F 23% 30.04 in 10.0 mi North 16.1 mph - N/A   Clear
4:35 PM 77.4 °F 35.4 °F 22% 30.04 in 10.0 mi North 15.0 mph 20.7 mph N/A   Clear
4:55 PM 76.5 °F 34.2 °F 21% 30.05 in 10.0 mi North 15.0 mph - N/A   Clear
5:15 PM 75.2 °F 33.4 °F 22% 30.05 in 10.0 mi North 12.7 mph - N/A   Clear
5:35 PM 73.0 °F 33.4 °F 23% 30.06 in 10.0 mi North 9.2 mph - N/A   Clear
5:55 PM 70.0 °F 34.2 °F 27% 30.07 in 10.0 mi North 8.1 mph - N/A   Clear
6:15 PM 67.3 °F 34.2 °F 29% 30.08 in 10.0 mi North 5.8 mph - N/A   Clear
6:35 PM 64.9 °F 34.2 °F 32% 30.08 in 10.0 mi North 6.9 mph - N/A   Clear
6:55 PM 64.2 °F 34.5 °F 33% 30.09 in 10.0 mi North 8.1 mph - N/A   Clear
7:15 PM 62.8 °F 34.9 °F 35% 30.10 in 10.0 mi North 6.9 mph - N/A   Clear
7:35 PM 62.1 °F 35.2 °F 37% 30.10 in 10.0 mi North 5.8 mph - N/A   Clear
7:55 PM 61.5 °F 35.2 °F 37% 30.11 in 10.0 mi North 3.5 mph - N/A   Clear
8:15 PM 61.3 °F 35.2 °F 38% 30.11 in 10.0 mi North 5.8 mph - N/A   Clear
8:35 PM 59.4 °F 36.1 °F 42% 30.12 in 10.0 mi North 8.1 mph - N/A   Clear
8:55 PM 59.2 °F 36.5 °F 43% 30.12 in 10.0 mi North 10.4 mph - N/A   Clear
9:15 PM 61.3 °F 35.4 °F 38% 30.13 in 10.0 mi NNE 8.1 mph - N/A   Clear
9:35 PM 60.3 °F 35.6 °F 40% 30.14 in 10.0 mi North 6.9 mph - N/A   Clear
9:55 PM 57.7 °F 36.1 °F 44% 30.13 in 10.0 mi North 4.6 mph - N/A   Clear
10:15 PM 57.4 °F 35.6 °F 44% 30.12 in 10.0 mi NNW 4.6 mph - N/A   Clear
10:35 PM 56.7 °F 35.1 °F 44% 30.12 in 10.0 mi Calm Calm - N/A   Clear
10:55 PM 56.7 °F 34.9 °F 44% 30.12 in 10.0 mi North 3.5 mph - N/A   Clear
11:15 PM 56.1 °F 34.5 °F 44% 30.12 in 10.0 mi North 4.6 mph - N/A   Clear
11:35 PM 55.0 °F 34.5 °F 46% 30.13 in 10.0 mi NNW 4.6 mph - N/A   Clear
11:55 PM 54.7 °F 34.5 °F 47% 30.14 in 10.0 mi NNW 4.6 mph - N/A   Clear